sensor_id;sensor_type;location;lat;lon;timestamp;pressure;altitude;pressure_sealevel;temperature;humidity
71195;BME280;58908;51.426;7.714;2024-02-26T00:01:27;98111.22;;;4.88;100.00
71195;BME280;58908;51.426;7.714;2024-02-26T00:03:55;98114.78;;;4.73;100.00
71195;BME280;58908;51.426;7.714;2024-02-26T00:06:24;98114.44;;;4.79;100.00
71195;BME280;58908;51.426;7.714;2024-02-26T00:08:50;98117.78;;;4.67;100.00
71195;BME280;58908;51.426;7.714;2024-02-26T00:11:17;98122.88;;;4.82;100.00
71195;BME280;58908;51.426;7.714;2024-02-26T00:13:43;98110.50;;;4.86;100.00
71195;BME280;58908;51.426;7.714;2024-02-26T00:16:09;98103.22;;;4.91;100.00
71195;BME280;58908;51.426;7.714;2024-02-26T00:18:35;98103.59;;;4.99;100.00
71195;BME280;58908;51.426;7.714;2024-02-26T00:21:03;98102.97;;;4.95;100.00
71195;BME280;58908;51.426;7.714;2024-02-26T00:23:30;98102.50;;;4.89;100.00
71195;BME280;58908;51.426;7.714;2024-02-26T00:25:56;98100.22;;;4.97;100.00
71195;BME280;58908;51.426;7.714;2024-02-26T00:28:22;98110.22;;;4.90;100.00
71195;BME280;58908;51.426;7.714;2024-02-26T00:30:49;98107.22;;;4.82;100.00
71195;BME280;58908;51.426;7.714;2024-02-26T00:33:20;98104.53;;;4.98;100.00
71195;BME280;58908;51.426;7.714;2024-02-26T00:35:47;98096.88;;;5.09;100.00
71195;BME280;58908;51.426;7.714;2024-02-26T00:38:14;98096.06;;;4.94;100.00
71195;BME280;58908;51.426;7.714;2024-02-26T00:40:41;98094.75;;;4.87;100.00
71195;BME280;58908;51.426;7.714;2024-02-26T00:43:07;98084.81;;;5.20;100.00
71195;BME280;58908;51.426;7.714;2024-02-26T00:45:33;98083.16;;;5.19;100.00
71195;BME280;58908;51.426;7.714;2024-02-26T00:47:59;98074.66;;;5.16;100.00
71195;BME280;58908;51.426;7.714;2024-02-26T00:50:29;98065.69;;;5.20;100.00
71195;BME280;58908;51.426;7.714;2024-02-26T00:52:55;98080.16;;;5.11;100.00
71195;BME280;58908;51.426;7.714;2024-02-26T00:55:23;98081.59;;;5.03;100.00
71195;BME280;58908;51.426;7.714;2024-02-26T00:57:49;98092.09;;;5.15;100.00
71195;BME280;58908;51.426;7.714;2024-02-26T01:00:16;98097.22;;;5.31;100.00
71195;BME280;58908;51.426;7.714;2024-02-26T01:02:42;98087.97;;;5.39;100.00
71195;BME280;58908;51.426;7.714;2024-02-26T01:05:11;98084.31;;;5.42;100.00
71195;BME280;58908;51.426;7.714;2024-02-26T01:07:38;98087.13;;;5.39;100.00
71195;BME280;58908;51.426;7.714;2024-02-26T01:10:05;98086.84;;;5.43;100.00
71195;BME280;58908;51.426;7.714;2024-02-26T01:12:33;98081.19;;;5.49;100.00
71195;BME280;58908;51.426;7.714;2024-02-26T01:14:59;98077.28;;;5.56;100.00
71195;BME280;58908;51.426;7.714;2024-02-26T01:17:25;98075.97;;;5.49;100.00
71195;BME280;58908;51.426;7.714;2024-02-26T01:19:52;98070.50;;;5.40;100.00
71195;BME280;58908;51.426;7.714;2024-02-26T01:22:19;98078.25;;;5.27;100.00
71195;BME280;58908;51.426;7.714;2024-02-26T01:24:45;98077.47;;;5.13;100.00
71195;BME280;58908;51.426;7.714;2024-02-26T01:27:11;98079.97;;;5.28;100.00
71195;BME280;58908;51.426;7.714;2024-02-26T01:29:40;98074.38;;;5.20;100.00
71195;BME280;58908;51.426;7.714;2024-02-26T01:32:06;98074.91;;;5.39;100.00
71195;BME280;58908;51.426;7.714;2024-02-26T01:34:33;98079.88;;;5.16;100.00
71195;BME280;58908;51.426;7.714;2024-02-26T01:37:02;98081.84;;;5.12;100.00
71195;BME280;58908;51.426;7.714;2024-02-26T01:39:28;98074.66;;;5.56;100.00
71195;BME280;58908;51.426;7.714;2024-02-26T01:41:55;98072.41;;;5.64;100.00
71195;BME280;58908;51.426;7.714;2024-02-26T01:44:21;98075.22;;;5.61;100.00
71195;BME280;58908;51.426;7.714;2024-02-26T01:46:49;98074.66;;;5.56;100.00
71195;BME280;58908;51.426;7.714;2024-02-26T01:49:15;98079.25;;;5.53;100.00
71195;BME280;58908;51.426;7.714;2024-02-26T01:51:41;98083.00;;;5.49;100.00
71195;BME280;58908;51.426;7.714;2024-02-26T01:54:09;98088.88;;;5.52;100.00
71195;BME280;58908;51.426;7.714;2024-02-26T01:56:35;98094.69;;;5.43;100.00
71195;BME280;58908;51.426;7.714;2024-02-26T01:59:02;98095.41;;;5.45;100.00
71195;BME280;58908;51.426;7.714;2024-02-26T02:01:30;98099.66;;;5.34;100.00
71195;BME280;58908;51.426;7.714;2024-02-26T02:03:59;98099.38;;;5.24;100.00
71195;BME280;58908;51.426;7.714;2024-02-26T02:06:26;98092.28;;;5.12;100.00
71195;BME280;58908;51.426;7.714;2024-02-26T02:08:54;98095.19;;;5.08;100.00
71195;BME280;58908;51.426;7.714;2024-02-26T02:11:21;98096.78;;;4.96;100.00
71195;BME280;58908;51.426;7.714;2024-02-26T02:13:47;98096.13;;;4.93;100.00
71195;BME280;58908;51.426;7.714;2024-02-26T02:16:13;98095.09;;;5.09;100.00
71195;BME280;58908;51.426;7.714;2024-02-26T02:18:40;98096.19;;;5.33;100.00
71195;BME280;58908;51.426;7.714;2024-02-26T02:21:07;98097.31;;;5.29;100.00
71195;BME280;58908;51.426;7.714;2024-02-26T02:23:34;98096.69;;;5.26;100.00
71195;BME280;58908;51.426;7.714;2024-02-26T02:26:01;98089.75;;;5.39;100.00
71195;BME280;58908;51.426;7.714;2024-02-26T02:28:28;98087.19;;;5.11;100.00
71195;BME280;58908;51.426;7.714;2024-02-26T02:30:54;98089.47;;;5.15;100.00
71195;BME280;58908;51.426;7.714;2024-02-26T02:33:21;98092.41;;;5.11;100.00
71195;BME280;58908;51.426;7.714;2024-02-26T02:35:47;98094.34;;;5.21;100.00
71195;BME280;58908;51.426;7.714;2024-02-26T02:38:17;98095.53;;;5.30;100.00
71195;BME280;58908;51.426;7.714;2024-02-26T02:40:43;98099.16;;;5.27;100.00
71195;BME280;58908;51.426;7.714;2024-02-26T02:43:09;98112.63;;;5.21;100.00
71195;BME280;58908;51.426;7.714;2024-02-26T02:45:35;98111.34;;;5.28;100.00
71195;BME280;58908;51.426;7.714;2024-02-26T02:48:02;98114.38;;;5.49;100.00
71195;BME280;58908;51.426;7.714;2024-02-26T02:50:28;98116.72;;;5.25;100.00
71195;BME280;58908;51.426;7.714;2024-02-26T02:52:54;98112.47;;;5.10;100.00
71195;BME280;58908;51.426;7.714;2024-02-26T02:55:22;98114.41;;;5.35;100.00
71195;BME280;58908;51.426;7.714;2024-02-26T02:57:48;98112.94;;;5.57;100.00
71195;BME280;58908;51.426;7.714;2024-02-26T03:00:15;98111.06;;;5.59;100.00
71195;BME280;58908;51.426;7.714;2024-02-26T03:02:41;98104.66;;;5.51;100.00
71195;BME280;58908;51.426;7.714;2024-02-26T03:05:10;98120.56;;;5.34;100.00
71195;BME280;58908;51.426;7.714;2024-02-26T03:07:36;98117.66;;;5.38;100.00
71195;BME280;58908;51.426;7.714;2024-02-26T03:10:02;98123.44;;;5.43;100.00
71195;BME280;58908;51.426;7.714;2024-02-26T03:12:30;98123.78;;;5.65;100.00
71195;BME280;58908;51.426;7.714;2024-02-26T03:14:59;98112.91;;;5.71;100.00
71195;BME280;58908;51.426;7.714;2024-02-26T03:17:27;98118.91;;;5.73;100.00
71195;BME280;58908;51.426;7.714;2024-02-26T03:19:53;98114.81;;;5.55;100.00
71195;BME280;58908;51.426;7.714;2024-02-26T03:22:20;98131.78;;;5.36;100.00
71195;BME280;58908;51.426;7.714;2024-02-26T03:24:46;98129.56;;;5.56;100.00
71195;BME280;58908;51.426;7.714;2024-02-26T03:27:12;98126.13;;;5.56;100.00
71195;BME280;58908;51.426;7.714;2024-02-26T03:29:40;98122.75;;;5.68;100.00
71195;BME280;58908;51.426;7.714;2024-02-26T03:32:07;98119.69;;;5.61;100.00
71195;BME280;58908;51.426;7.714;2024-02-26T03:34:33;98126.38;;;5.65;100.00
71195;BME280;58908;51.426;7.714;2024-02-26T03:37:00;98139.88;;;5.45;100.00
71195;BME280;58908;51.426;7.714;2024-02-26T03:39:26;98138.09;;;5.32;100.00
71195;BME280;58908;51.426;7.714;2024-02-26T03:41:52;98138.28;;;5.43;100.00
71195;BME280;58908;51.426;7.714;2024-02-26T03:44:19;98141.91;;;5.54;100.00
71195;BME280;58908;51.426;7.714;2024-02-26T03:46:47;98142.22;;;5.22;100.00
71195;BME280;58908;51.426;7.714;2024-02-26T03:49:13;98147.28;;;5.25;100.00
71195;BME280;58908;51.426;7.714;2024-02-26T03:51:39;98148.22;;;5.24;100.00
71195;BME280;58908;51.426;7.714;2024-02-26T03:54:05;98140.34;;;5.10;100.00
71195;BME280;58908;51.426;7.714;2024-02-26T03:56:32;98139.41;;;4.97;100.00
71195;BME280;58908;51.426;7.714;2024-02-26T03:58:58;98135.31;;;4.79;100.00
71195;BME280;58908;51.426;7.714;2024-02-26T04:01:26;98137.00;;;4.80;100.00
71195;BME280;58908;51.426;7.714;2024-02-26T04:03:54;98139.69;;;4.92;100.00
71195;BME280;58908;51.426;7.714;2024-02-26T04:06:20;98133.34;;;4.82;100.00
71195;BME280;58908;51.426;7.714;2024-02-26T04:08:47;98124.66;;;4.68;100.00
71195;BME280;58908;51.426;7.714;2024-02-26T04:11:13;98122.66;;;5.01;100.00
71195;BME280;58908;51.426;7.714;2024-02-26T04:13:42;98129.53;;;4.88;100.00
71195;BME280;58908;51.426;7.714;2024-02-26T04:16:10;98122.13;;;4.66;100.00
71195;BME280;58908;51.426;7.714;2024-02-26T04:18:37;98134.34;;;4.66;100.00
71195;BME280;58908;51.426;7.714;2024-02-26T04:21:05;98125.94;;;4.61;100.00
71195;BME280;58908;51.426;7.714;2024-02-26T04:23:32;98131.09;;;4.76;100.00
71195;BME280;58908;51.426;7.714;2024-02-26T04:25:58;98126.91;;;4.74;100.00
71195;BME280;58908;51.426;7.714;2024-02-26T04:28:24;98125.50;;;4.82;100.00
71195;BME280;58908;51.426;7.714;2024-02-26T04:30:53;98134.44;;;4.64;100.00
71195;BME280;58908;51.426;7.714;2024-02-26T04:33:23;98154.69;;;4.75;100.00
71195;BME280;58908;51.426;7.714;2024-02-26T04:35:49;98147.19;;;4.98;100.00
71195;BME280;58908;51.426;7.714;2024-02-26T04:38:17;98135.13;;;4.96;100.00
71195;BME280;58908;51.426;7.714;2024-02-26T04:40:43;98143.78;;;4.82;100.00
71195;BME280;58908;51.426;7.714;2024-02-26T04:43:09;98130.91;;;4.79;100.00
71195;BME280;58908;51.426;7.714;2024-02-26T04:45:36;98143.22;;;4.77;100.00
71195;BME280;58908;51.426;7.714;2024-02-26T04:48:02;98143.91;;;4.81;100.00
71195;BME280;58908;51.426;7.714;2024-02-26T04:50:28;98149.72;;;5.00;100.00
71195;BME280;58908;51.426;7.714;2024-02-26T04:52:55;98152.41;;;4.84;100.00
71195;BME280;58908;51.426;7.714;2024-02-26T04:55:22;98149.13;;;4.81;100.00
71195;BME280;58908;51.426;7.714;2024-02-26T04:57:48;98149.13;;;5.09;100.00
71195;BME280;58908;51.426;7.714;2024-02-26T05:00:15;98166.22;;;5.00;100.00
71195;BME280;58908;51.426;7.714;2024-02-26T05:02:41;98165.38;;;5.00;100.00
71195;BME280;58908;51.426;7.714;2024-02-26T05:05:08;98176.94;;;5.10;100.00
71195;BME280;58908;51.426;7.714;2024-02-26T05:07:38;98174.13;;;5.41;100.00
71195;BME280;58908;51.426;7.714;2024-02-26T05:10:05;98178.72;;;5.51;100.00
71195;BME280;58908;51.426;7.714;2024-02-26T05:12:33;98174.22;;;5.25;100.00
71195;BME280;58908;51.426;7.714;2024-02-26T05:15:00;98177.69;;;5.40;100.00
71195;BME280;58908;51.426;7.714;2024-02-26T05:17:27;98188.44;;;5.21;100.00
71195;BME280;58908;51.426;7.714;2024-02-26T05:19:53;98193.75;;;5.20;100.00
71195;BME280;58908;51.426;7.714;2024-02-26T05:22:19;98209.41;;;5.06;100.00
71195;BME280;58908;51.426;7.714;2024-02-26T05:24:46;98206.44;;;5.12;100.00
71195;BME280;58908;51.426;7.714;2024-02-26T05:27:12;98208.41;;;5.08;100.00
71195;BME280;58908;51.426;7.714;2024-02-26T05:29:39;98197.28;;;5.19;100.00
71195;BME280;58908;51.426;7.714;2024-02-26T05:32:06;98210.75;;;5.27;100.00
71195;BME280;58908;51.426;7.714;2024-02-26T05:34:32;98204.38;;;5.03;100.00
71195;BME280;58908;51.426;7.714;2024-02-26T05:36:58;98209.06;;;5.26;100.00
71195;BME280;58908;51.426;7.714;2024-02-26T05:39:25;98205.25;;;5.17;100.00
71195;BME280;58908;51.426;7.714;2024-02-26T05:41:51;98216.34;;;5.21;100.00
71195;BME280;58908;51.426;7.714;2024-02-26T05:44:18;98218.72;;;4.96;100.00
71195;BME280;58908;51.426;7.714;2024-02-26T05:46:45;98219.19;;;4.88;100.00
71195;BME280;58908;51.426;7.714;2024-02-26T05:49:11;98223.88;;;4.97;100.00
71195;BME280;58908;51.426;7.714;2024-02-26T05:51:38;98215.03;;;5.00;100.00
71195;BME280;58908;51.426;7.714;2024-02-26T05:54:04;98220.13;;;5.01;100.00
71195;BME280;58908;51.426;7.714;2024-02-26T05:56:30;98215.38;;;5.08;100.00
71195;BME280;58908;51.426;7.714;2024-02-26T05:58:56;98207.94;;;5.02;100.00
71195;BME280;58908;51.426;7.714;2024-02-26T06:01:23;98217.59;;;4.86;100.00
71195;BME280;58908;51.426;7.714;2024-02-26T06:03:51;98214.09;;;5.01;100.00
71195;BME280;58908;51.426;7.714;2024-02-26T06:06:17;98216.03;;;4.83;100.00
71195;BME280;58908;51.426;7.714;2024-02-26T06:08:43;98225.56;;;4.98;100.00
71195;BME280;58908;51.426;7.714;2024-02-26T06:11:09;98226.31;;;4.71;100.00
71195;BME280;58908;51.426;7.714;2024-02-26T06:13:36;98223.53;;;4.74;100.00
71195;BME280;58908;51.426;7.714;2024-02-26T06:16:02;98219.94;;;4.90;100.00
71195;BME280;58908;51.426;7.714;2024-02-26T06:18:29;98218.75;;;5.10;100.00
71195;BME280;58908;51.426;7.714;2024-02-26T06:20:56;98220.16;;;4.72;100.00
71195;BME280;58908;51.426;7.714;2024-02-26T06:23:22;98235.22;;;4.82;100.00
71195;BME280;58908;51.426;7.714;2024-02-26T06:25:49;98230.34;;;4.76;100.00
71195;BME280;58908;51.426;7.714;2024-02-26T06:28:15;98232.25;;;4.88;100.00
71195;BME280;58908;51.426;7.714;2024-02-26T06:30:41;98253.28;;;4.71;100.00
71195;BME280;58908;51.426;7.714;2024-02-26T06:33:08;98244.03;;;4.95;100.00
71195;BME280;58908;51.426;7.714;2024-02-26T06:35:35;98243.19;;;4.65;100.00
71195;BME280;58908;51.426;7.714;2024-02-26T06:38:03;98248.22;;;4.68;100.00
71195;BME280;58908;51.426;7.714;2024-02-26T06:40:29;98247.44;;;4.82;100.00
71195;BME280;58908;51.426;7.714;2024-02-26T06:42:56;98249.97;;;4.83;100.00
71195;BME280;58908;51.426;7.714;2024-02-26T06:45:22;98259.84;;;4.78;100.00
71195;BME280;58908;51.426;7.714;2024-02-26T06:47:48;98249.69;;;5.17;100.00
71195;BME280;58908;51.426;7.714;2024-02-26T06:50:15;98257.66;;;5.00;100.00
71195;BME280;58908;51.426;7.714;2024-02-26T06:52:42;98259.78;;;4.94;100.00
71195;BME280;58908;51.426;7.714;2024-02-26T06:55:10;98261.13;;;5.01;100.00
71195;BME280;58908;51.426;7.714;2024-02-26T06:57:36;98254.03;;;5.03;100.00
71195;BME280;58908;51.426;7.714;2024-02-26T07:00:03;98255.75;;;4.88;100.00
71195;BME280;58908;51.426;7.714;2024-02-26T07:02:29;98263.56;;;5.04;100.00
71195;BME280;58908;51.426;7.714;2024-02-26T07:04:56;98259.34;;;5.15;100.00
71195;BME280;58908;51.426;7.714;2024-02-26T07:07:23;98253.38;;;4.99;100.00
71195;BME280;58908;51.426;7.714;2024-02-26T07:09:49;98261.97;;;5.15;100.00
71195;BME280;58908;51.426;7.714;2024-02-26T07:12:17;98257.25;;;4.92;100.00
71195;BME280;58908;51.426;7.714;2024-02-26T07:14:44;98267.44;;;4.97;100.00
71195;BME280;58908;51.426;7.714;2024-02-26T07:17:10;98271.91;;;4.95;100.00
71195;BME280;58908;51.426;7.714;2024-02-26T07:19:37;98274.47;;;5.10;100.00
71195;BME280;58908;51.426;7.714;2024-02-26T07:22:05;98272.78;;;5.09;100.00
71195;BME280;58908;51.426;7.714;2024-02-26T07:24:32;98276.16;;;5.11;100.00
71195;BME280;58908;51.426;7.714;2024-02-26T07:26:58;98275.59;;;5.06;100.00
71195;BME280;58908;51.426;7.714;2024-02-26T07:29:25;98279.63;;;5.12;100.00
71195;BME280;58908;51.426;7.714;2024-02-26T07:31:52;98279.78;;;5.09;100.00
71195;BME280;58908;51.426;7.714;2024-02-26T07:34:18;98280.44;;;5.12;100.00
71195;BME280;58908;51.426;7.714;2024-02-26T07:36:44;98290.91;;;5.12;100.00
71195;BME280;58908;51.426;7.714;2024-02-26T07:39:10;98290.16;;;5.10;100.00
71195;BME280;58908;51.426;7.714;2024-02-26T07:41:37;98289.16;;;5.27;100.00
71195;BME280;58908;51.426;7.714;2024-02-26T07:44:04;98282.84;;;5.01;100.00
71195;BME280;58908;51.426;7.714;2024-02-26T07:46:31;98288.53;;;4.94;100.00
71195;BME280;58908;51.426;7.714;2024-02-26T07:48:58;98302.00;;;5.02;100.00
71195;BME280;58908;51.426;7.714;2024-02-26T07:51:24;98296.78;;;5.16;100.00
71195;BME280;58908;51.426;7.714;2024-02-26T07:54:01;98301.81;;;5.05;100.00
71195;BME280;58908;51.426;7.714;2024-02-26T07:56:27;98300.41;;;5.13;100.00
71195;BME280;58908;51.426;7.714;2024-02-26T07:58:54;98303.16;;;5.26;100.00
71195;BME280;58908;51.426;7.714;2024-02-26T08:01:20;98310.69;;;5.16;100.00
71195;BME280;58908;51.426;7.714;2024-02-26T08:03:47;98306.44;;;5.29;100.00
71195;BME280;58908;51.426;7.714;2024-02-26T08:06:14;98310.28;;;5.38;100.00
71195;BME280;58908;51.426;7.714;2024-02-26T08:08:40;98306.94;;;5.64;100.00
71195;BME280;58908;51.426;7.714;2024-02-26T08:11:06;98312.00;;;5.67;100.00
71195;BME280;58908;51.426;7.714;2024-02-26T08:13:33;98315.03;;;5.31;100.00
71195;BME280;58908;51.426;7.714;2024-02-26T08:16:00;98313.44;;;5.43;100.00
71195;BME280;58908;51.426;7.714;2024-02-26T08:18:27;98321.13;;;5.46;100.00
71195;BME280;58908;51.426;7.714;2024-02-26T08:20:54;98318.88;;;5.54;100.00
71195;BME280;58908;51.426;7.714;2024-02-26T08:23:21;98322.97;;;5.44;100.00
71195;BME280;58908;51.426;7.714;2024-02-26T08:25:47;98326.72;;;5.83;100.00
71195;BME280;58908;51.426;7.714;2024-02-26T08:28:13;98325.72;;;5.70;100.00
71195;BME280;58908;51.426;7.714;2024-02-26T08:30:42;98329.34;;;5.54;100.00
71195;BME280;58908;51.426;7.714;2024-02-26T08:33:09;98324.84;;;5.42;100.00
71195;BME280;58908;51.426;7.714;2024-02-26T08:35:35;98332.63;;;5.43;100.00
71195;BME280;58908;51.426;7.714;2024-02-26T08:38:03;98325.25;;;5.50;100.00
71195;BME280;58908;51.426;7.714;2024-02-26T08:40:29;98324.16;;;5.68;100.00
71195;BME280;58908;51.426;7.714;2024-02-26T08:42:55;98329.75;;;5.76;100.00
71195;BME280;58908;51.426;7.714;2024-02-26T08:45:22;98334.63;;;6.10;100.00
71195;BME280;58908;51.426;7.714;2024-02-26T08:47:49;98335.66;;;5.93;100.00
71195;BME280;58908;51.426;7.714;2024-02-26T08:50:15;98336.97;;;6.00;100.00
71195;BME280;58908;51.426;7.714;2024-02-26T08:52:42;98329.84;;;5.74;100.00
71195;BME280;58908;51.426;7.714;2024-02-26T08:55:10;98329.53;;;6.49;100.00
71195;BME280;58908;51.426;7.714;2024-02-26T08:57:38;98304.28;;;7.13;100.00
71195;BME280;58908;51.426;7.714;2024-02-26T09:00:05;98298.16;;;6.35;100.00
71195;BME280;58908;51.426;7.714;2024-02-26T09:02:34;98301.34;;;6.26;100.00
71195;BME280;58908;51.426;7.714;2024-02-26T09:05:00;98303.09;;;6.25;100.00
71195;BME280;58908;51.426;7.714;2024-02-26T09:07:26;98307.72;;;5.94;100.00
71195;BME280;58908;51.426;7.714;2024-02-26T09:09:52;98303.78;;;6.15;100.00
71195;BME280;58908;51.426;7.714;2024-02-26T09:12:20;98307.81;;;6.06;100.00
71195;BME280;58908;51.426;7.714;2024-02-26T09:14:46;98312.00;;;6.09;100.00
71195;BME280;58908;51.426;7.714;2024-02-26T09:17:13;98307.81;;;6.20;100.00
71195;BME280;58908;51.426;7.714;2024-02-26T09:19:39;98312.75;;;6.25;100.00
71195;BME280;58908;51.426;7.714;2024-02-26T09:22:07;98319.59;;;6.54;100.00
71195;BME280;58908;51.426;7.714;2024-02-26T09:24:33;98326.91;;;6.49;100.00
71195;BME280;58908;51.426;7.714;2024-02-26T09:26:59;98333.63;;;6.53;100.00
71195;BME280;58908;51.426;7.714;2024-02-26T09:29:27;98335.47;;;6.24;100.00
71195;BME280;58908;51.426;7.714;2024-02-26T09:31:54;98328.63;;;6.36;100.00
71195;BME280;58908;51.426;7.714;2024-02-26T09:34:20;98329.16;;;6.41;100.00
71195;BME280;58908;51.426;7.714;2024-02-26T09:36:46;98337.31;;;6.50;100.00
71195;BME280;58908;51.426;7.714;2024-02-26T09:39:12;98348.59;;;5.96;100.00
71195;BME280;58908;51.426;7.714;2024-02-26T09:41:42;98343.59;;;6.20;100.00
71195;BME280;58908;51.426;7.714;2024-02-26T09:44:08;98338.53;;;6.31;100.00
71195;BME280;58908;51.426;7.714;2024-02-26T09:46:39;98346.00;;;6.51;100.00
71195;BME280;58908;51.426;7.714;2024-02-26T09:49:05;98342.53;;;6.36;100.00
71195;BME280;58908;51.426;7.714;2024-02-26T09:51:32;98336.44;;;6.50;100.00
71195;BME280;58908;51.426;7.714;2024-02-26T09:53:59;98351.75;;;6.29;100.00
71195;BME280;58908;51.426;7.714;2024-02-26T09:56:25;98357.19;;;6.53;100.00
71195;BME280;58908;51.426;7.714;2024-02-26T09:58:52;98369.31;;;6.41;100.00
71195;BME280;58908;51.426;7.714;2024-02-26T10:01:19;98383.59;;;6.50;100.00
71195;BME280;58908;51.426;7.714;2024-02-26T10:03:48;98389.69;;;6.50;100.00
71195;BME280;58908;51.426;7.714;2024-02-26T10:06:18;98384.50;;;6.63;100.00
71195;BME280;58908;51.426;7.714;2024-02-26T10:08:44;98386.38;;;6.61;100.00
71195;BME280;58908;51.426;7.714;2024-02-26T10:11:11;98389.91;;;6.74;100.00
71195;BME280;58908;51.426;7.714;2024-02-26T10:13:37;98385.94;;;6.54;100.00
71195;BME280;58908;51.426;7.714;2024-02-26T10:16:04;98390.63;;;6.90;100.00
71195;BME280;58908;51.426;7.714;2024-02-26T10:18:44;98397.03;;;6.72;100.00
71195;BME280;58908;51.426;7.714;2024-02-26T10:21:12;98404.59;;;6.76;100.00
71195;BME280;58908;51.426;7.714;2024-02-26T10:23:38;98394.81;;;6.92;100.00
71195;BME280;58908;51.426;7.714;2024-02-26T10:26:05;98393.13;;;6.91;100.00
71195;BME280;58908;51.426;7.714;2024-02-26T10:28:31;98399.47;;;7.01;100.00
71195;BME280;58908;51.426;7.714;2024-02-26T10:30:57;98393.44;;;6.87;100.00
71195;BME280;58908;51.426;7.714;2024-02-26T10:33:24;98397.34;;;6.94;100.00
71195;BME280;58908;51.426;7.714;2024-02-26T10:35:51;98398.94;;;7.22;100.00
71195;BME280;58908;51.426;7.714;2024-02-26T10:38:18;98395.91;;;7.28;100.00
71195;BME280;58908;51.426;7.714;2024-02-26T10:40:45;98400.91;;;7.45;100.00
71195;BME280;58908;51.426;7.714;2024-02-26T10:43:11;98404.03;;;7.50;100.00
71195;BME280;58908;51.426;7.714;2024-02-26T10:45:39;98405.19;;;7.46;100.00
71195;BME280;58908;51.426;7.714;2024-02-26T10:48:09;98406.25;;;7.17;100.00
71195;BME280;58908;51.426;7.714;2024-02-26T10:50:35;98401.41;;;7.50;100.00
71195;BME280;58908;51.426;7.714;2024-02-26T10:53:02;98407.56;;;7.37;100.00
71195;BME280;58908;51.426;7.714;2024-02-26T10:55:31;98408.03;;;7.56;100.00
71195;BME280;58908;51.426;7.714;2024-02-26T10:58:00;98402.16;;;7.52;100.00
71195;BME280;58908;51.426;7.714;2024-02-26T11:00:27;98415.41;;;7.63;100.00
71195;BME280;58908;51.426;7.714;2024-02-26T11:02:54;98422.06;;;7.42;100.00
71195;BME280;58908;51.426;7.714;2024-02-26T11:05:23;98420.66;;;7.63;100.00
71195;BME280;58908;51.426;7.714;2024-02-26T11:07:50;98412.09;;;7.99;100.00
71195;BME280;58908;51.426;7.714;2024-02-26T11:10:16;98406.13;;;8.22;100.00
71195;BME280;58908;51.426;7.714;2024-02-26T11:12:44;98410.31;;;8.12;100.00
71195;BME280;58908;51.426;7.714;2024-02-26T11:15:11;98419.00;;;7.87;100.00
71195;BME280;58908;51.426;7.714;2024-02-26T11:17:37;98419.34;;;8.08;100.00
71195;BME280;58908;51.426;7.714;2024-02-26T11:20:04;98409.75;;;7.69;100.00
71195;BME280;58908;51.426;7.714;2024-02-26T11:22:31;98413.38;;;8.18;100.00
71195;BME280;58908;51.426;7.714;2024-02-26T11:24:58;98409.97;;;8.04;100.00
71195;BME280;58908;51.426;7.714;2024-02-26T11:27:26;98415.13;;;7.80;100.00
71195;BME280;58908;51.426;7.714;2024-02-26T11:29:56;98410.31;;;8.37;100.00
71195;BME280;58908;51.426;7.714;2024-02-26T11:32:24;98398.63;;;8.16;100.00
71195;BME280;58908;51.426;7.714;2024-02-26T11:34:51;98412.97;;;8.24;100.00
71195;BME280;58908;51.426;7.714;2024-02-26T11:37:17;98421.69;;;8.25;100.00
71195;BME280;58908;51.426;7.714;2024-02-26T11:39:44;98425.81;;;7.77;100.00
71195;BME280;58908;51.426;7.714;2024-02-26T11:42:13;98418.81;;;8.03;100.00
71195;BME280;58908;51.426;7.714;2024-02-26T11:44:40;98424.38;;;7.98;100.00
71195;BME280;58908;51.426;7.714;2024-02-26T11:47:11;98417.22;;;7.88;100.00
71195;BME280;58908;51.426;7.714;2024-02-26T11:49:38;98418.50;;;7.95;100.00
71195;BME280;58908;51.426;7.714;2024-02-26T11:52:04;98419.34;;;7.95;100.00
71195;BME280;58908;51.426;7.714;2024-02-26T11:54:38;98418.94;;;8.01;100.00
71195;BME280;58908;51.426;7.714;2024-02-26T11:57:19;98423.91;;;8.31;100.00
71195;BME280;58908;51.426;7.714;2024-02-26T11:59:45;98426.69;;;7.90;100.00
71195;BME280;58908;51.426;7.714;2024-02-26T12:02:19;98434.47;;;8.04;100.00
71195;BME280;58908;51.426;7.714;2024-02-26T12:04:59;98442.44;;;8.03;100.00
71195;BME280;58908;51.426;7.714;2024-02-26T12:07:26;98451.38;;;8.00;100.00
71195;BME280;58908;51.426;7.714;2024-02-26T12:09:52;98449.28;;;8.05;100.00
71195;BME280;58908;51.426;7.714;2024-02-26T12:12:18;98458.94;;;8.17;100.00
71195;BME280;58908;51.426;7.714;2024-02-26T12:14:50;98457.03;;;7.94;100.00
71195;BME280;58908;51.426;7.714;2024-02-26T12:17:20;98459.47;;;8.10;100.00
71195;BME280;58908;51.426;7.714;2024-02-26T12:19:46;98465.38;;;8.26;100.00
71195;BME280;58908;51.426;7.714;2024-02-26T12:22:13;98467.16;;;8.00;100.00
71195;BME280;58908;51.426;7.714;2024-02-26T12:24:39;98477.53;;;8.02;100.00
71195;BME280;58908;51.426;7.714;2024-02-26T12:27:05;98472.56;;;7.85;100.00
71195;BME280;58908;51.426;7.714;2024-02-26T12:29:32;98483.63;;;8.02;100.00
71195;BME280;58908;51.426;7.714;2024-02-26T12:31:58;98478.53;;;8.26;100.00
71195;BME280;58908;51.426;7.714;2024-02-26T12:34:26;98482.06;;;8.12;100.00
71195;BME280;58908;51.426;7.714;2024-02-26T12:36:52;98480.19;;;8.14;100.00
71195;BME280;58908;51.426;7.714;2024-02-26T12:39:19;98478.69;;;7.98;100.00
71195;BME280;58908;51.426;7.714;2024-02-26T12:41:46;98471.44;;;8.01;100.00
71195;BME280;58908;51.426;7.714;2024-02-26T12:44:14;98484.03;;;7.84;100.00
71195;BME280;58908;51.426;7.714;2024-02-26T12:46:40;98473.44;;;8.10;100.00
71195;BME280;58908;51.426;7.714;2024-02-26T12:49:07;98482.22;;;8.36;100.00
71195;BME280;58908;51.426;7.714;2024-02-26T12:51:34;98478.50;;;8.13;100.00
71195;BME280;58908;51.426;7.714;2024-02-26T12:54:02;98484.75;;;7.98;100.00
71195;BME280;58908;51.426;7.714;2024-02-26T12:56:29;98482.22;;;8.23;100.00
71195;BME280;58908;51.426;7.714;2024-02-26T12:58:56;98481.91;;;8.28;100.00